»·PEaware :: SWA632 KLAX-KABQ

SWA632 :: KLAX-KABQ

FLIGHT INFORMATION

Flight Status: Arrived
Operator:
Southwest Airlines
More flights by this operator :: More flights under this callsign
Pilot: Maximilliano F. (23467)
Aircraft: BOEING 737-800
(B738)
More flights by this aircraft type
Origin: KLAX Los Angeles Intl
United States
Destination: KABQ Albuquerque Intl Sunport
United States
More flights between these airports :: More routes between these airports
Route: DOTSS2 CLEEE PKE CABNO KRKEE3
File this flight plan on PilotEdge
Remarks: RMK / SIMBRIEF
Altitude:
(Current/Filed)
35,000ft
Speed:
(Current/Filed)
453kts
Departed: 11-Oct-19 05:01 PM
Arrived: 11-Oct-19 06:26 PM
Distance/Time
Traveled:
587nm/1:24
Distance/Time
To Go:
Arrived

Flight Plot

Page will automatically refresh every two minutes.

Flight plan parsing failed; only flown route is shown


Map Options




Map Legend


Flown Route
Filed Route
Departure Airport
Arrival Airport
Navaid (VOR, NDB)
Fix

Horizontal Profiles

Position Reports

Time Latitude Longitude Heading Altitude Ground
Speed
11-Oct-19 16:31 33.946241 -118.400053 165 122ft 0kts
11-Oct-19 16:32 33.946241 -118.400053 165 122ft 0kts
11-Oct-19 16:33 33.946241 -118.400053 165 122ft 0kts
11-Oct-19 16:34 33.946241 -118.400053 165 122ft 0kts
11-Oct-19 16:35 33.946241 -118.400053 165 122ft 0kts
11-Oct-19 16:36 33.946241 -118.400053 165 122ft 0kts
11-Oct-19 16:37 33.946241 -118.400053 165 122ft 0kts
11-Oct-19 16:39 33.946241 -118.400053 165 121ft 0kts
11-Oct-19 16:40 33.946241 -118.400053 165 121ft 0kts
11-Oct-19 16:41 33.946241 -118.400053 165 121ft 0kts
11-Oct-19 16:42 33.946241 -118.400053 165 121ft 0kts
11-Oct-19 16:43 33.946241 -118.400053 165 121ft 0kts
11-Oct-19 16:44 33.946241 -118.400053 165 121ft 0kts
11-Oct-19 16:45 33.946241 -118.400053 165 121ft 0kts
11-Oct-19 16:46 33.946241 -118.400053 165 121ft 0kts
11-Oct-19 16:47 33.946241 -118.400053 165 121ft 0kts
11-Oct-19 16:48 33.946241 -118.400053 165 121ft 0kts
11-Oct-19 16:49 33.946241 -118.400053 165 121ft 0kts
11-Oct-19 16:50 33.946241 -118.400053 165 121ft 0kts
11-Oct-19 16:51 33.946241 -118.400053 165 121ft 0kts
11-Oct-19 16:52 33.946600 -118.400357 88 121ft 0kts
11-Oct-19 16:53 33.946589 -118.400454 83 121ft 0kts
11-Oct-19 16:54 33.946589 -118.400454 83 121ft 0kts
11-Oct-19 16:55 33.947815 -118.400063 6 120ft 8kts
11-Oct-19 16:56 33.949208 -118.400655 59 119ft 7kts
11-Oct-19 16:57 33.949483 -118.399259 39 117ft 0kts
11-Oct-19 16:58 33.949483 -118.399259 39 117ft 0kts
11-Oct-19 16:58 33.949483 -118.399259 39 117ft 0kts
11-Oct-19 17:00 33.950273 -118.399270 313 117ft 9kts
11-Oct-19 17:01 33.946514 -118.433527 257 751ft 184kts
11-Oct-19 17:01 33.937909 -118.487448 270 2564ft 239kts
11-Oct-19 17:02 33.938731 -118.575310 264 5946ft 273kts
11-Oct-19 17:04 33.887880 -118.648502 176 10003ft 278kts
11-Oct-19 17:04 33.825561 -118.622522 156 12112ft 312kts
11-Oct-19 17:05 33.749794 -118.561170 148 14989ft 344kts
11-Oct-19 17:06 33.683340 -118.477673 113 17345ft 363kts
11-Oct-19 17:07 33.651157 -118.360998 111 20543ft 371kts
11-Oct-19 17:08 33.643152 -118.233948 89 22816ft 401kts
11-Oct-19 17:09 33.645335 -118.095995 94 25057ft 421kts
11-Oct-19 17:10 33.645156 -117.950443 94 27253ft 439kts
11-Oct-19 17:11 33.646375 -117.802559 91 29722ft 443kts
11-Oct-19 17:12 33.672182 -117.649163 79 30677ft 486kts
11-Oct-19 17:13 33.702844 -117.490057 79 32824ft 491kts
11-Oct-19 17:14 33.733051 -117.331411 80 34816ft 492kts
11-Oct-19 17:15 33.750495 -117.171582 95 34956ft 500kts
11-Oct-19 17:16 33.746766 -117.004678 95 34984ft 498kts
11-Oct-19 17:17 33.743070 -116.837770 95 35030ft 501kts
11-Oct-19 17:18 33.739237 -116.670821 95 35033ft 500kts
11-Oct-19 17:19 33.735173 -116.503092 95 35035ft 501kts
11-Oct-19 17:20 33.730871 -116.335376 96 35032ft 500kts
11-Oct-19 17:21 33.726388 -116.167671 96 35026ft 501kts
11-Oct-19 17:22 33.743724 -116.001630 74 35039ft 508kts
11-Oct-19 17:23 33.788183 -115.840341 72 35040ft 509kts
11-Oct-19 17:24 33.832983 -115.678153 72 35042ft 510kts
11-Oct-19 17:25 33.877416 -115.516376 73 35045ft 510kts
11-Oct-19 17:26 33.921615 -115.354510 73 35047ft 511kts
11-Oct-19 17:27 33.964497 -115.196775 73 35037ft 513kts
11-Oct-19 17:28 34.008384 -115.034187 73 35014ft 509kts
11-Oct-19 17:29 34.051840 -114.872241 73 34997ft 509kts
11-Oct-19 17:30 34.094923 -114.709897 76 35001ft 508kts
11-Oct-19 17:31 34.114524 -114.543697 86 35005ft 508kts
11-Oct-19 17:32 34.129531 -114.373896 86 35012ft 509kts
11-Oct-19 17:33 34.143007 -114.220715 86 35006ft 509kts
11-Oct-19 17:34 34.157661 -114.050866 86 35041ft 511kts
11-Oct-19 17:35 34.172140 -113.880308 86 35062ft 510kts
11-Oct-19 17:36 34.186310 -113.710562 86 35070ft 509kts
11-Oct-19 17:37 34.200312 -113.539969 86 35078ft 509kts
11-Oct-19 17:38 34.214020 -113.370020 86 35086ft 510kts
11-Oct-19 17:39 34.227151 -113.205155 87 35080ft 509kts
11-Oct-19 17:40 34.240407 -113.034969 86 35088ft 510kts
11-Oct-19 17:41 34.253506 -112.863730 86 35143ft 512kts
11-Oct-19 17:42 34.266374 -112.692377 86 35176ft 513kts
11-Oct-19 17:43 34.279028 -112.520601 86 35179ft 515kts
11-Oct-19 17:44 34.291457 -112.348613 87 35182ft 516kts
11-Oct-19 17:45 34.303568 -112.178587 87 35170ft 517kts
11-Oct-19 17:46 34.315583 -112.005556 87 35174ft 516kts
11-Oct-19 17:47 34.327357 -111.832462 87 35191ft 516kts
11-Oct-19 17:48 34.338867 -111.659638 87 35196ft 517kts
11-Oct-19 17:49 34.350174 -111.486158 87 35198ft 516kts
11-Oct-19 17:50 34.361168 -111.313995 87 35188ft 516kts
11-Oct-19 17:51 34.372032 -111.140574 87 35188ft 517kts
11-Oct-19 17:52 34.382586 -110.967305 87 35220ft 518kts
11-Oct-19 17:53 34.392934 -110.793380 87 35249ft 519kts
11-Oct-19 17:54 34.403094 -110.618436 87 35252ft 520kts
11-Oct-19 17:55 34.412975 -110.443957 87 35255ft 521kts
11-Oct-19 17:56 34.422625 -110.270155 88 35242ft 522kts
11-Oct-19 17:57 34.432067 -110.095062 88 35238ft 522kts
11-Oct-19 17:58 34.441257 -109.919460 88 35215ft 524kts
11-Oct-19 17:59 34.450233 -109.743205 88 35214ft 523kts
11-Oct-19 18:00 34.458938 -109.567265 87 35217ft 524kts
11-Oct-19 18:01 34.467406 -109.390966 87 35220ft 523kts
11-Oct-19 18:02 34.475603 -109.216773 88 35206ft 523kts
11-Oct-19 18:03 34.483565 -109.040662 88 35239ft 523kts
11-Oct-19 18:04 34.491245 -108.865070 88 35267ft 523kts
11-Oct-19 18:05 34.498707 -108.688640 88 34826ft 530kts
11-Oct-19 18:06 34.505634 -108.509767 91 31570ft 528kts
11-Oct-19 18:07 34.531415 -108.343987 77 28896ft 504kts
11-Oct-19 18:08 34.559304 -108.183167 78 26581ft 471kts
11-Oct-19 18:09 34.584786 -108.032945 78 24522ft 438kts
11-Oct-19 18:10 34.609004 -107.889070 78 22615ft 439kts
11-Oct-19 18:11 34.644179 -107.756925 61 21160ft 393kts
11-Oct-19 18:12 34.692920 -107.643742 60 19477ft 368kts
11-Oct-19 18:13 34.741635 -107.530510 60 17641ft 373kts
11-Oct-19 18:14 34.787729 -107.423005 60 15987ft 344kts
11-Oct-19 18:15 34.831766 -107.320041 61 14515ft 348kts
11-Oct-19 18:16 34.874480 -107.217590 62 13175ft 332kts
11-Oct-19 18:17 34.914739 -107.121041 61 11925ft 303kts
11-Oct-19 18:18 34.952299 -107.032992 62 10884ft 301kts
11-Oct-19 18:19 34.990008 -106.942356 64 9654ft 287kts
11-Oct-19 18:20 35.022285 -106.859770 64 8689ft 253kts
11-Oct-19 18:21 35.044092 -106.785308 81 7853ft 215kts
11-Oct-19 18:22 35.044859 -106.722722 89 6918ft 164kts
11-Oct-19 18:23 35.044607 -106.665751 92 6123ft 169kts
11-Oct-19 18:24 35.044275 -106.608967 92 5323ft 148kts
11-Oct-19 18:25 35.045349 -106.591255 8 5341ft 13kts
11-Oct-19 18:26 35.045836 -106.594944 269 5337ft 15kts
11-Oct-19 18:27 35.045730 -106.600467 270 5330ft 17kts
11-Oct-19 18:28 35.045766 -106.606583 270 5322ft 17kts
11-Oct-19 18:29 35.045805 -106.612013 269 5322ft 14kts
11-Oct-19 18:30 35.046135 -106.614273 333 5322ft 1kts
11-Oct-19 18:31 35.046477 -106.614319 351 5322ft 3kts
11-Oct-19 18:32 35.046933 -106.614484 341 5322ft 0kts

Navigation Log

Ident Type
Flight plan parsing failed, navigation log unavailable